Time;durP1;ratioP1;P1;durP2;ratioP2;P2;SDS_P1;SDS_P2;PMS_P1;PMS_P2;Temp;Humidity;BMP_temperature;BMP_pressure;BME280_temperature;BME280_humidity;BME280_pressure;Samples;Min_cycle;Max_cycle;Signal;HPM_P1;HPM_P2
2020/12/27 00:00:58;;;;;;;4.15;2.20;;;4.60;99.90;;;;;;4989137;28;20046;-83
2020/12/27 00:03:24;;;;;;;4.38;1.98;;;4.60;99.90;;;;;;5007834;28;20023;-81
2020/12/27 00:05:50;;;;;;;4.00;2.60;;;4.60;99.90;;;;;;5007523;28;20027;-82
2020/12/27 00:08:15;;;;;;;3.80;2.25;;;4.60;99.90;;;;;;5007364;28;20469;-83
2020/12/27 00:10:44;;;;;;;5.40;3.25;;;4.60;99.90;;;;;;5007431;28;20079;-84
2020/12/27 00:13:09;;;;;;;4.15;2.50;;;4.60;99.90;;;;;;4989071;28;20033;-87
2020/12/27 00:15:35;;;;;;;4.43;2.65;;;4.70;99.90;;;;;;4989616;28;20034;-85
2020/12/27 00:18:04;;;;;;;4.80;2.53;;;4.60;99.90;;;;;;4989434;28;20121;-86
2020/12/27 00:20:31;;;;;;;4.32;2.42;;;4.60;99.90;;;;;;5007562;28;20471;-77
2020/12/27 00:22:56;;;;;;;3.75;2.33;;;4.60;99.90;;;;;;5007388;28;20023;-83
2020/12/27 00:25:22;;;;;;;4.63;2.60;;;4.60;99.90;;;;;;4989708;28;20121;-87
2020/12/27 00:27:47;;;;;;;3.08;1.80;;;4.70;99.90;;;;;;4989488;28;20030;-83
2020/12/27 00:30:13;;;;;;;3.28;2.63;;;4.60;99.90;;;;;;4989094;28;20027;-82
2020/12/27 00:32:38;;;;;;;3.17;1.73;;;4.70;99.90;;;;;;4989778;28;20391;-80
2020/12/27 00:35:04;;;;;;;6.57;3.60;;;4.70;99.90;;;;;;5005890;28;20028;-81
2020/12/27 00:37:31;;;;;;;4.03;1.65;;;4.70;99.90;;;;;;4989123;28;20033;-84
2020/12/27 00:39:57;;;;;;;6.45;2.80;;;4.70;99.90;;;;;;4989620;28;20082;-80
2020/12/27 00:42:23;;;;;;;2.75;1.92;;;4.70;99.90;;;;;;4989657;28;20034;-85
2020/12/27 00:44:49;;;;;;;3.25;2.35;;;4.70;99.90;;;;;;4988668;28;20091;-85
2020/12/27 00:47:14;;;;;;;2.50;1.70;;;4.70;99.90;;;;;;4989335;28;20113;-85
2020/12/27 00:49:42;;;;;;;1.90;1.63;;;4.70;99.90;;;;;;4989462;28;20081;-82
2020/12/27 00:52:08;;;;;;;3.83;2.65;;;4.70;99.90;;;;;;4989117;28;20035;-85
2020/12/27 00:54:34;;;;;;;4.50;2.17;;;4.70;99.90;;;;;;4989349;28;20018;-84
2020/12/27 00:56:59;;;;;;;3.67;2.30;;;4.80;99.90;;;;;;5006676;28;20022;-79
2020/12/27 00:59:25;;;;;;;3.67;2.20;;;4.70;99.90;;;;;;4989358;28;20030;-89
2020/12/27 01:01:54;;;;;;;4.05;1.70;;;4.80;99.90;;;;;;4989153;28;20049;-81
2020/12/27 01:04:20;;;;;;;2.88;1.73;;;4.80;99.90;;;;;;4988762;28;20038;-83
2020/12/27 01:06:46;;;;;;;3.00;1.20;;;4.80;99.90;;;;;;5006699;28;20018;-83
2020/12/27 01:09:11;;;;;;;3.85;1.88;;;4.80;99.90;;;;;;4988882;28;20026;-82
2020/12/27 01:11:39;;;;;;;3.65;2.05;;;4.80;99.90;;;;;;4988731;28;20036;-78
2020/12/27 01:14:05;;;;;;;2.50;1.73;;;4.80;99.90;;;;;;5006396;28;20078;-83
2020/12/27 01:16:30;;;;;;;6.50;2.00;;;4.80;99.90;;;;;;4988624;28;20026;-79
2020/12/27 01:18:56;;;;;;;3.25;1.48;;;4.80;99.90;;;;;;5006434;28;20030;-83
2020/12/27 01:21:28;;;;;;;4.00;1.42;;;4.90;99.90;;;;;;4988713;28;20066;-84
2020/12/27 01:23:55;;;;;;;9.60;1.58;;;4.90;99.90;;;;;;4988978;28;20071;-79
2020/12/27 01:26:28;;;;;;;2.25;1.52;;;4.90;99.90;;;;;;4988368;28;20034;-81
2020/12/27 01:28:54;;;;;;;2.60;1.73;;;4.90;99.90;;;;;;5005937;28;20018;-82
2020/12/27 01:31:22;;;;;;;2.17;1.55;;;4.90;99.90;;;;;;4988454;28;20037;-80
2020/12/27 01:33:48;;;;;;;1.80;1.33;;;5.00;99.90;;;;;;4988388;28;20130;-79
2020/12/27 01:36:13;;;;;;;2.80;2.10;;;4.90;99.90;;;;;;4988616;28;20026;-82
2020/12/27 01:38:39;;;;;;;1.88;1.30;;;4.90;99.90;;;;;;5005543;28;20058;-80
2020/12/27 01:41:04;;;;;;;1.33;1.23;;;4.90;99.90;;;;;;4988289;28;20132;-83
2020/12/27 01:43:30;;;;;;;2.55;1.13;;;4.90;99.90;;;;;;4988092;28;20143;-80
2020/12/27 01:45:56;;;;;;;1.40;0.85;;;4.90;99.90;;;;;;4988402;28;20053;-81
2020/12/27 01:48:23;;;;;;;2.47;1.13;;;4.90;99.90;;;;;;4988468;28;20076;-82
2020/12/27 01:50:51;;;;;;;3.40;1.50;;;4.90;99.90;;;;;;4988516;28;20410;-82
2020/12/27 01:53:16;;;;;;;3.00;1.02;;;4.80;99.90;;;;;;4987742;28;20037;-80
2020/12/27 01:55:42;;;;;;;3.50;1.85;;;4.90;99.90;;;;;;5005620;28;20026;-78
2020/12/27 01:58:16;;;;;;;2.17;0.85;;;4.90;99.90;;;;;;4987866;28;20022;-77
2020/12/27 02:00:43;;;;;;;;;;;4.90;99.90;;;;;;4987973;28;20069;-79
2020/12/27 02:03:09;;;;;;;3.58;1.38;;;4.90;99.90;;;;;;5005401;28;19906;-78
2020/12/27 02:05:35;;;;;;;2.63;1.13;;;4.90;99.90;;;;;;4988139;28;20029;-82
2020/12/27 02:08:01;;;;;;;0.80;0.57;;;4.90;99.90;;;;;;4987610;28;20030;-80
2020/12/27 02:10:29;;;;;;;1.67;1.20;;;4.90;99.90;;;;;;4988019;28;20034;-83
2020/12/27 02:12:55;;;;;;;2.15;1.10;;;4.90;99.90;;;;;;4988270;28;20027;-83
2020/12/27 02:15:20;;;;;;;1.50;1.05;;;4.90;99.90;;;;;;4987578;28;20089;-84
2020/12/27 02:17:46;;;;;;;1.95;1.00;;;4.90;99.90;;;;;;4988204;28;20026;-81
2020/12/27 02:20:12;;;;;;;1.58;0.85;;;4.90;99.90;;;;;;4987829;28;20041;-80
2020/12/27 02:22:44;;;;;;;0.70;0.63;;;4.90;99.90;;;;;;4988270;28;20033;-80
2020/12/27 02:25:10;;;;;;;1.40;0.90;;;4.90;99.90;;;;;;5010355;28;20026;-84
2020/12/27 02:27:36;;;;;;;2.22;1.08;;;4.90;99.90;;;;;;4988752;28;20057;-84
2020/12/27 02:30:05;;;;;;;1.10;0.88;;;4.90;99.90;;;;;;4987615;28;20023;-81
2020/12/27 02:32:30;;;;;;;1.77;0.73;;;4.90;99.90;;;;;;4987659;28;20057;-82
2020/12/27 02:34:56;;;;;;;4.15;1.20;;;4.90;99.90;;;;;;4987138;28;20022;-79
2020/12/27 02:37:24;;;;;;;2.05;0.88;;;4.90;99.90;;;;;;4987364;28;20026;-81
2020/12/27 02:39:50;;;;;;;2.28;1.02;;;5.00;99.90;;;;;;4987282;28;20030;-84
2020/12/27 02:42:15;;;;;;;1.05;0.88;;;5.00;99.90;;;;;;4986914;28;20026;-83
2020/12/27 02:47:25;;;;;;;0.88;0.88;;;4.90;99.90;;;;;;5005469;28;20050;-79
2020/12/27 02:49:50;;;;;;;1.63;1.25;;;4.90;99.90;;;;;;4987500;28;20035;-81
2020/12/27 02:52:22;;;;;;;1.45;0.60;;;5.00;99.90;;;;;;4987952;28;20030;-82
2020/12/27 02:54:48;;;;;;;1.00;0.55;;;4.90;99.90;;;;;;4987151;28;20027;-80
2020/12/27 02:57:13;;;;;;;1.52;0.90;;;4.90;99.90;;;;;;4987203;28;20037;-82
2020/12/27 02:59:39;;;;;;;1.45;0.60;;;4.90;99.90;;;;;;4987604;28;20109;-85
2020/12/27 03:02:04;;;;;;;0.70;0.57;;;4.90;99.90;;;;;;4987137;28;20038;-77
2020/12/27 03:04:30;;;;;;;0.88;0.65;;;4.90;99.90;;;;;;4987381;28;20026;-82
2020/12/27 03:06:56;;;;;;;0.90;0.30;;;4.90;99.90;;;;;;4987692;28;20030;-82
2020/12/27 03:09:21;;;;;;;0.73;0.70;;;4.90;99.90;;;;;;4987075;28;20046;-83
2020/12/27 03:11:47;;;;;;;0.90;0.57;;;4.90;99.90;;;;;;4987228;28;20026;-83
2020/12/27 03:14:15;;;;;;;1.42;0.90;;;4.90;99.90;;;;;;4987130;28;20026;-83
2020/12/27 03:16:43;;;;;;;0.43;0.43;;;4.90;99.90;;;;;;5004655;28;20034;-79
2020/12/27 03:19:09;;;;;;;6.15;0.80;;;4.80;99.90;;;;;;4987424;28;20083;-79
2020/12/27 03:21:35;;;;;;;1.30;0.93;;;4.80;99.90;;;;;;4987020;28;20483;-79
2020/12/27 03:24:00;;;;;;;1.08;0.63;;;4.70;99.90;;;;;;4986526;28;20037;-80
2020/12/27 03:26:26;;;;;;;1.20;0.68;;;4.70;99.90;;;;;;5005083;28;20132;-81
2020/12/27 03:28:51;;;;;;;0.68;0.40;;;4.70;99.90;;;;;;4987173;28;20030;-83
2020/12/27 03:31:17;;;;;;;1.75;1.17;;;4.70;99.90;;;;;;5004271;28;20137;-81
2020/12/27 03:33:43;;;;;;;0.60;0.55;;;4.70;99.90;;;;;;5004674;28;20031;-79
2020/12/27 03:36:08;;;;;;;1.80;0.70;;;4.70;99.90;;;;;;5004370;28;20030;-81
2020/12/27 03:38:34;;;;;;;1.10;0.73;;;4.70;99.90;;;;;;5004776;28;20034;-78
2020/12/27 03:41:01;;;;;;;1.13;0.52;;;4.60;99.90;;;;;;5004429;28;20043;-80
2020/12/27 03:43:27;;;;;;;1.02;0.73;;;4.60;99.90;;;;;;5004221;28;20125;-79
2020/12/27 03:45:53;;;;;;;2.10;1.05;;;4.60;99.90;;;;;;4986949;28;20055;-79
2020/12/27 03:48:18;;;;;;;1.23;0.77;;;4.60;99.90;;;;;;4989853;28;20030;-80
2020/12/27 03:50:44;;;;;;;0.85;0.40;;;4.50;99.90;;;;;;4990073;28;20026;-80
2020/12/27 03:53:09;;;;;;;2.83;1.17;;;4.50;99.90;;;;;;5007920;28;20038;-84
2020/12/27 03:55:35;;;;;;;2.03;1.08;;;4.50;99.90;;;;;;5007951;28;20090;-81
2020/12/27 03:58:00;;;;;;;0.90;0.50;;;4.50;99.90;;;;;;4990038;28;20092;-81
2020/12/27 04:00:29;;;;;;;1.23;0.43;;;4.50;99.90;;;;;;5007976;28;20049;-79
2020/12/27 04:02:55;;;;;;;1.33;0.70;;;4.40;99.90;;;;;;5007775;28;20475;-82
2020/12/27 04:05:20;;;;;;;12.30;0.98;;;4.40;99.90;;;;;;5007576;28;20034;-81
2020/12/27 04:07:46;;;;;;;0.68;0.35;;;4.40;99.90;;;;;;4990267;28;20033;-79
2020/12/27 04:10:11;;;;;;;5.78;1.75;;;4.40;99.90;;;;;;4989942;28;20026;-80
2020/12/27 04:12:37;;;;;;;1.33;0.55;;;4.40;99.90;;;;;;5007228;28;20026;-83
2020/12/27 04:15:03;;;;;;;1.48;0.70;;;4.30;99.90;;;;;;4990075;28;20026;-78
2020/12/27 04:17:29;;;;;;;1.38;0.77;;;4.30;99.90;;;;;;4990187;28;20093;-83
2020/12/27 04:19:54;;;;;;;1.02;0.63;;;4.20;99.90;;;;;;4989639;28;20037;-79
2020/12/27 04:22:20;;;;;;;1.67;0.93;;;4.30;99.90;;;;;;4990002;28;20062;-78
2020/12/27 04:24:45;;;;;;;1.35;0.57;;;4.20;99.90;;;;;;5007126;28;20054;-79
2020/12/27 04:27:11;;;;;;;1.45;0.75;;;4.20;99.90;;;;;;4989572;28;20029;-79
2020/12/27 04:29:36;;;;;;;0.80;0.50;;;4.20;99.90;;;;;;4989674;28;20030;-80
2020/12/27 04:32:02;;;;;;;1.23;0.47;;;4.20;99.90;;;;;;5007600;28;20026;-80
2020/12/27 04:34:28;;;;;;;2.28;0.70;;;4.20;99.90;;;;;;4989916;28;20046;-79
2020/12/27 04:36:53;;;;;;;1.70;1.10;;;4.30;99.90;;;;;;4989784;28;20023;-78
2020/12/27 04:39:19;;;;;;;0.85;0.50;;;4.20;99.90;;;;;;5006790;28;20026;-81
2020/12/27 04:41:45;;;;;;;1.33;0.68;;;4.30;99.90;;;;;;4989227;28;20066;-81
2020/12/27 04:44:11;;;;;;;0.57;0.45;;;4.20;99.90;;;;;;5006671;28;20057;-82
2020/12/27 04:46:42;;;;;;;2.47;0.50;;;4.20;99.90;;;;;;5006864;28;20082;-84
2020/12/27 04:49:10;;;;;;;2.20;0.98;;;4.20;99.90;;;;;;4989265;28;20031;-78
2020/12/27 04:51:37;;;;;;;0.70;0.60;;;4.20;99.90;;;;;;4989639;28;20034;-82
2020/12/27 04:54:05;;;;;;;1.98;0.98;;;4.20;99.90;;;;;;5006664;28;20034;-82
2020/12/27 04:56:32;;;;;;;1.23;0.43;;;4.20;99.90;;;;;;4989170;28;20490;-82
2020/12/27 04:58:58;;;;;;;0.57;0.43;;;4.20;99.90;;;;;;4989126;28;20037;-86
2020/12/27 05:01:26;;;;;;;1.02;0.68;;;4.20;99.90;;;;;;4989211;28;20129;-81
2020/12/27 05:03:55;;;;;;;0.30;0.30;;;4.20;99.90;;;;;;4988886;28;20034;-82
2020/12/27 05:06:21;;;;;;;0.30;0.25;;;4.20;99.90;;;;;;4989127;28;20074;-80
2020/12/27 05:08:47;;;;;;;0.45;0.30;;;4.20;99.90;;;;;;4988646;28;20030;-80
2020/12/27 05:11:17;;;;;;;0.40;0.32;;;4.20;99.90;;;;;;4988988;28;20030;-82
2020/12/27 05:13:46;;;;;;;7.13;1.20;;;4.20;99.90;;;;;;4988667;28;20054;-83
2020/12/27 05:16:15;;;;;;;0.70;0.35;;;4.20;99.90;;;;;;5006237;28;20030;-81
2020/12/27 05:18:43;;;;;;;1.60;0.73;;;4.20;99.90;;;;;;4988766;28;20166;-79
2020/12/27 05:21:09;;;;;;;8.88;0.93;;;4.30;99.90;;;;;;4988371;28;20120;-80
2020/12/27 05:23:36;;;;;;;0.95;0.60;;;4.30;99.90;;;;;;4988587;28;20407;-82
2020/12/27 05:26:06;;;;;;;0.55;0.50;;;4.30;99.90;;;;;;4988935;28;20026;-83
2020/12/27 05:28:33;;;;;;;0.35;0.20;;;4.30;99.90;;;;;;4988302;28;20041;-82
2020/12/27 05:31:12;;;;;;;1.08;0.50;;;4.30;99.90;;;;;;5006007;28;20018;-84
2020/12/27 05:33:42;;;;;;;0.20;0.20;;;4.30;99.90;;;;;;5005925;28;20036;-80
2020/12/27 05:36:08;;;;;;;1.25;0.38;;;4.30;99.90;;;;;;4988275;28;20062;-80
2020/12/27 05:38:34;;;;;;;1.08;0.47;;;4.40;99.90;;;;;;4988470;28;20072;-80
2020/12/27 05:41:04;;;;;;;0.68;0.38;;;4.40;99.90;;;;;;4988473;28;20070;-83
2020/12/27 05:43:30;;;;;;;0.95;0.73;;;4.40;99.90;;;;;;4987872;28;20422;-80
2020/12/27 05:45:56;;;;;;;0.68;0.52;;;4.40;99.90;;;;;;5005929;28;20026;-80
2020/12/27 05:48:22;;;;;;;0.57;0.47;;;4.40;99.90;;;;;;4987960;28;20046;-81
2020/12/27 05:50:50;;;;;;;0.80;0.50;;;4.50;99.90;;;;;;4988160;28;20037;-82
2020/12/27 05:53:29;;;;;;;0.50;0.28;;;4.40;99.90;;;;;;4988617;28;20030;-83
2020/12/27 05:55:59;;;;;;;0.75;0.32;;;4.40;99.90;;;;;;4986751;28;20113;-80
2020/12/27 05:58:25;;;;;;;2.03;1.15;;;4.50;99.90;;;;;;5000759;28;20053;-80
2020/12/27 06:00:53;;;;;;;0.90;0.52;;;4.60;99.90;;;;;;5000227;28;20061;-79
2020/12/27 06:03:29;;;;;;;0.60;0.40;;;4.50;99.90;;;;;;4985707;28;20019;-82
2020/12/27 06:05:55;;;;;;;0.30;0.30;;;4.60;99.90;;;;;;4983326;28;20032;-79
2020/12/27 06:08:29;;;;;;;0.60;0.60;;;4.50;99.90;;;;;;4986871;28;20058;-82
2020/12/27 06:11:33;;;;;;;0.00;0.00;;;4.60;99.90;;;;;;5003218;28;20030;-80
2020/12/27 06:14:13;;;;;;;0.50;0.40;;;4.50;99.90;;;;;;5001623;28;20046;-79
2020/12/27 06:16:45;;;;;;;2.13;0.40;;;4.50;99.90;;;;;;4986676;28;20030;-77
2020/12/27 06:19:26;;;;;;;0.25;0.25;;;4.40;99.90;;;;;;4985605;28;20034;-81
2020/12/27 06:22:04;;;;;;;2.05;0.20;;;4.30;99.90;;;;;;4997158;28;20046;-78
2020/12/27 06:24:31;;;;;;;0.75;0.40;;;4.40;99.90;;;;;;5001958;28;20026;-78
2020/12/27 06:27:02;;;;;;;0.32;0.22;;;4.20;99.90;;;;;;5002273;28;20018;-78
2020/12/27 06:29:40;;;;;;;0.60;0.38;;;4.20;99.90;;;;;;4988110;28;20072;-82
2020/12/27 06:32:10;;;;;;;0.45;0.45;;;4.10;99.90;;;;;;4987654;28;20030;-78
2020/12/27 06:34:36;;;;;;;1.00;0.65;;;4.00;99.90;;;;;;4987736;28;20398;-80
2020/12/27 06:37:06;;;;;;;0.40;0.30;;;3.90;99.90;;;;;;4988001;28;20053;-81
2020/12/27 06:39:32;;;;;;;0.80;0.30;;;3.90;99.90;;;;;;4987573;28;20026;-83
2020/12/27 06:42:07;;;;;;;0.30;0.20;;;3.90;99.90;;;;;;5005249;28;20054;-78
2020/12/27 06:44:39;;;;;;;1.88;0.45;;;3.90;99.90;;;;;;4987163;28;20054;-80
2020/12/27 06:47:05;;;;;;;0.28;0.20;;;3.90;99.90;;;;;;4987392;28;20487;-78
2020/12/27 06:49:31;;;;;;;0.63;0.25;;;4.00;99.90;;;;;;4987792;28;20027;-80
2020/12/27 06:52:14;;;;;;;0.43;0.30;;;3.90;99.90;;;;;;5005379;28;20073;-78
2020/12/27 06:54:43;;;;;;;0.20;0.10;;;3.90;99.90;;;;;;4987477;28;20029;-81
2020/12/27 06:57:09;;;;;;;0.20;0.20;;;3.80;99.90;;;;;;4987490;28;20030;-79
2020/12/27 06:59:39;;;;;;;1.00;0.52;;;3.80;99.90;;;;;;4987215;28;20023;-81
2020/12/27 07:02:06;;;;;;;1.58;0.20;;;3.70;99.90;;;;;;5004897;28;20042;-79
2020/12/27 07:04:38;;;;;;;1.98;0.45;;;3.70;99.90;;;;;;5005233;28;20022;-79
2020/12/27 07:07:03;;;;;;;1.00;0.32;;;3.70;99.90;;;;;;5005065;28;20077;-78
2020/12/27 07:09:31;;;;;;;0.73;0.20;;;3.70;99.90;;;;;;4987641;28;20033;-76
2020/12/27 07:12:12;;;;;;;0.52;0.32;;;3.70;99.90;;;;;;4987703;28;20026;-79
2020/12/27 07:14:39;;;;;;;0.65;0.30;;;3.70;99.90;;;;;;4986529;28;20034;-84
2020/12/27 07:17:06;;;;;;;0.30;0.30;;;3.70;99.90;;;;;;4987026;28;20190;-79
2020/12/27 07:19:36;;;;;;;0.82;0.40;;;3.70;99.90;;;;;;4987229;28;20030;-80
2020/12/27 07:22:11;;;;;;;0.30;0.20;;;3.70;99.90;;;;;;5006370;28;20050;-81
2020/12/27 07:24:39;;;;;;;0.55;0.20;;;3.70;99.90;;;;;;4990877;28;20030;-81
2020/12/27 07:27:09;;;;;;;1.83;0.75;;;3.70;99.90;;;;;;5008453;28;20101;-84
2020/12/27 07:29:36;;;;;;;0.40;0.22;;;3.70;99.90;;;;;;4990718;28;20029;-77
2020/12/27 07:32:02;;;;;;;0.63;0.57;;;3.70;99.90;;;;;;4990968;28;20090;-76
2020/12/27 07:34:30;;;;;;;1.27;0.38;;;3.70;99.90;;;;;;5008470;28;20039;-78
2020/12/27 07:37:03;;;;;;;0.43;0.20;;;3.70;99.90;;;;;;5008426;28;20037;-80
2020/12/27 07:39:48;;;;;;;0.73;0.25;;;3.70;99.90;;;;;;5004888;28;20026;-81
2020/12/27 07:42:20;;;;;;;;;;;3.80;99.90;;;;;;4999753;28;20034;-81
2020/12/27 07:44:46;;;;;;;0.30;0.28;;;3.80;99.90;;;;;;4990570;28;19924;-77
2020/12/27 07:47:12;;;;;;;0.57;0.30;;;3.90;99.90;;;;;;5026261;28;20025;-79
2020/12/27 07:49:37;;;;;;;0.88;0.43;;;3.90;99.90;;;;;;5009614;28;20029;-80
2020/12/27 07:52:03;;;;;;;0.30;0.30;;;3.90;99.90;;;;;;5009546;28;20045;-75
2020/12/27 07:54:28;;;;;;;0.63;0.57;;;3.90;99.90;;;;;;5027442;28;20085;-75
2020/12/27 07:56:54;;;;;;;0.82;0.45;;;4.00;99.90;;;;;;5009588;28;20033;-77
2020/12/27 07:59:20;;;;;;;0.50;0.50;;;4.00;99.90;;;;;;5009710;28;20026;-79
2020/12/27 08:01:45;;;;;;;0.32;0.32;;;4.00;99.90;;;;;;5027175;28;20089;-80
2020/12/27 08:04:11;;;;;;;0.63;0.30;;;4.10;99.90;;;;;;5009469;28;20032;-79
2020/12/27 08:06:40;;;;;;;0.43;0.28;;;4.10;99.90;;;;;;5026961;28;20105;-79
2020/12/27 08:09:11;;;;;;;0.50;0.40;;;4.10;99.90;;;;;;5026942;28;20026;-79
2020/12/27 08:11:44;;;;;;;1.05;0.47;;;4.10;99.90;;;;;;5027093;28;20022;-81
2020/12/27 08:14:11;;;;;;;1.02;0.43;;;4.20;99.90;;;;;;5009275;28;20037;-76
2020/12/27 08:16:38;;;;;;;1.15;0.50;;;4.20;99.90;;;;;;5008742;28;20093;-77
2020/12/27 08:19:10;;;;;;;0.98;0.45;;;4.20;99.90;;;;;;5026813;28;20030;-79
2020/12/27 08:21:38;;;;;;;0.30;0.20;;;4.40;99.90;;;;;;5009209;28;20065;-79
2020/12/27 08:24:11;;;;;;;0.10;0.10;;;4.30;99.90;;;;;;5009062;28;20033;-77
2020/12/27 08:26:39;;;;;;;0.43;0.30;;;4.30;99.90;;;;;;5008608;28;20022;-83
2020/12/27 08:29:09;;;;;;;1.10;0.20;;;4.40;99.90;;;;;;5009069;28;20030;-83
2020/12/27 08:31:35;;;;;;;0.65;0.40;;;4.40;99.90;;;;;;5026180;28;20026;-81
2020/12/27 08:34:19;;;;;;;0.70;0.50;;;4.40;99.90;;;;;;5025666;28;20026;-82
2020/12/27 08:36:53;;;;;;;1.00;0.63;;;4.40;99.90;;;;;;5026326;28;20040;-80
2020/12/27 08:39:46;;;;;;;13.23;1.17;;;4.50;99.90;;;;;;5008125;28;20041;-80
2020/12/27 08:42:27;;;;;;;1.38;0.45;;;4.50;99.90;;;;;;5008391;28;20065;-78
2020/12/27 08:44:57;;;;;;;0.60;0.43;;;4.60;99.90;;;;;;5025767;28;20064;-77
2020/12/27 08:47:46;;;;;;;0.10;0.10;;;4.60;99.90;;;;;;5026057;28;20409;-81
2020/12/27 08:50:25;;;;;;;1.27;0.65;;;4.60;99.90;;;;;;5026479;28;20092;-79
2020/12/27 08:52:54;;;;;;;0.10;0.10;;;4.70;99.90;;;;;;5026201;28;20029;-80
2020/12/27 08:55:25;;;;;;;0.40;0.28;;;4.70;99.90;;;;;;5008366;28;20062;-79
2020/12/27 08:57:52;;;;;;;0.47;0.25;;;4.70;99.90;;;;;;5008400;28;20026;-81
2020/12/27 09:00:19;;;;;;;0.30;0.30;;;4.80;99.90;;;;;;5008065;28;20060;-79
2020/12/27 09:02:55;;;;;;;0.68;0.30;;;4.80;99.90;;;;;;5008299;28;20078;-81
2020/12/27 09:05:24;;;;;;;0.38;0.30;;;4.80;99.90;;;;;;5025899;28;20098;-79
2020/12/27 09:07:50;;;;;;;0.30;0.20;;;4.90;99.90;;;;;;5024395;28;20022;-79
2020/12/27 09:10:24;;;;;;;0.10;0.03;;;4.90;99.90;;;;;;5001979;28;20033;-83
2020/12/27 09:13:09;;;;;;;0.80;0.17;;;4.90;99.90;;;;;;5006969;28;20030;-82
2020/12/27 09:15:35;;;;;;;0.22;0.20;;;4.90;99.90;;;;;;5025239;28;20359;-80
2020/12/27 09:18:06;;;;;;;0.35;0.30;;;4.90;99.90;;;;;;5008507;28;20029;-80
2020/12/27 09:20:43;;;;;;;0.75;0.43;;;4.90;99.90;;;;;;5007767;28;20034;-81
2020/12/27 09:23:16;;;;;;;0.32;0.20;;;5.00;99.90;;;;;;5007710;28;20037;-81
2020/12/27 09:25:43;;;;;;;0.70;0.35;;;5.00;99.90;;;;;;5007058;28;20026;-83
2020/12/27 09:28:18;;;;;;;0.70;0.40;;;5.00;99.90;;;;;;5007260;28;20041;-78
2020/12/27 09:30:45;;;;;;;;;;;5.10;99.90;;;;;;5001922;28;20041;-81
2020/12/27 09:33:11;;;;;;;0.38;0.20;;;5.10;99.90;;;;;;4988163;28;19969;-78
2020/12/27 09:35:37;;;;;;;0.20;0.20;;;5.10;99.90;;;;;;4988218;28;20113;-80
2020/12/27 09:38:20;;;;;;;1.75;0.43;;;5.10;99.90;;;;;;4987637;28;20026;-80
2020/12/27 09:40:46;;;;;;;0.70;0.60;;;5.10;99.90;;;;;;4987433;28;20042;-79
2020/12/27 09:43:11;;;;;;;0.93;0.60;;;5.10;99.90;;;;;;4986654;28;20146;-82
2020/12/27 09:45:40;;;;;;;2.78;0.28;;;5.10;99.90;;;;;;4986783;28;20034;-83
2020/12/27 09:48:06;;;;;;;0.35;0.28;;;5.20;99.90;;;;;;4988672;28;20030;-79
2020/12/27 09:50:37;;;;;;;0.10;0.10;;;5.20;99.90;;;;;;5005364;28;20022;-77
2020/12/27 09:53:04;;;;;;;0.57;0.30;;;5.20;99.90;;;;;;5005230;28;20041;-83
2020/12/27 09:55:31;;;;;;;0.38;0.30;;;5.20;99.90;;;;;;4987935;28;20034;-82
2020/12/27 09:57:57;;;;;;;0.17;0.13;;;5.30;99.90;;;;;;5006087;28;20505;-77
2020/12/27 10:00:23;;;;;;;0.30;0.25;;;5.20;99.90;;;;;;4988027;28;20045;-82
2020/12/27 10:02:49;;;;;;;0.68;0.28;;;5.20;99.90;;;;;;5005830;28;20026;-82
2020/12/27 10:05:15;;;;;;;0.30;0.20;;;5.10;99.90;;;;;;4987771;28;20077;-81
2020/12/27 10:07:43;;;;;;;0.32;0.22;;;5.10;99.90;;;;;;5005418;28;20034;-80
2020/12/27 10:10:10;;;;;;;1.08;0.43;;;5.10;99.90;;;;;;5005090;28;20030;-81
2020/12/27 10:12:36;;;;;;;0.38;0.13;;;5.20;99.90;;;;;;4987807;28;20031;-81
2020/12/27 10:15:05;;;;;;;3.95;0.88;;;5.20;99.90;;;;;;5005244;28;20033;-82
2020/12/27 10:17:31;;;;;;;0.70;0.43;;;5.20;99.90;;;;;;5005440;28;20195;-82
2020/12/27 10:19:58;;;;;;;0.20;0.20;;;5.20;99.90;;;;;;5005575;28;20035;-80
2020/12/27 10:22:25;;;;;;;0.25;0.20;;;5.20;99.90;;;;;;4987754;28;20065;-81
2020/12/27 10:24:51;;;;;;;0.17;0.17;;;5.10;99.90;;;;;;5004978;28;20018;-82
2020/12/27 10:27:17;;;;;;;0.85;0.30;;;5.10;99.90;;;;;;5004944;28;20023;-81
2020/12/27 10:29:42;;;;;;;5.25;0.47;;;5.20;99.90;;;;;;5004179;28;20026;-78
2020/12/27 10:32:08;;;;;;;2.42;0.17;;;5.10;99.90;;;;;;5004530;28;20106;-83
2020/12/27 10:34:35;;;;;;;0.45;0.30;;;5.10;99.90;;;;;;4987456;28;20121;-81
2020/12/27 10:37:02;;;;;;;0.10;0.10;;;5.10;99.90;;;;;;4987088;28;20031;-80
2020/12/27 10:39:29;;;;;;;1.65;0.45;;;5.10;99.90;;;;;;5004748;28;20517;-81
2020/12/27 10:41:55;;;;;;;0.55;0.52;;;5.10;99.90;;;;;;4987517;28;20089;-79
2020/12/27 10:44:21;;;;;;;0.45;0.40;;;5.10;99.90;;;;;;4986528;28;20535;-82
2020/12/27 10:46:51;;;;;;;0.13;0.13;;;5.00;99.90;;;;;;5004417;28;20026;-82
2020/12/27 10:49:22;;;;;;;1.48;0.65;;;4.80;99.90;;;;;;4986845;28;20026;-81
2020/12/27 10:51:48;;;;;;;1.55;0.80;;;4.70;99.90;;;;;;4987186;28;20027;-84
2020/12/27 10:54:15;;;;;;;1.02;0.63;;;4.50;99.90;;;;;;4986979;28;20117;-78
2020/12/27 10:56:44;;;;;;;1.23;0.50;;;4.40;99.90;;;;;;4988940;28;20037;-79
2020/12/27 10:59:11;;;;;;;1.88;0.98;;;4.40;99.90;;;;;;5008764;28;20451;-80
2020/12/27 11:01:42;;;;;;;1.60;0.90;;;4.30;99.90;;;;;;5009065;28;20045;-81
2020/12/27 11:04:08;;;;;;;2.08;0.88;;;4.20;99.90;;;;;;4991045;28;20030;-84
2020/12/27 11:06:33;;;;;;;0.98;0.75;;;4.20;99.90;;;;;;4991048;28;20097;-78
2020/12/27 11:08:59;;;;;;;1.30;0.68;;;4.10;99.90;;;;;;5008231;28;20027;-79
2020/12/27 11:11:25;;;;;;;0.85;0.73;;;4.10;99.90;;;;;;5008509;28;20026;-81
2020/12/27 11:13:51;;;;;;;1.80;0.82;;;4.00;99.90;;;;;;4990597;28;20034;-78
2020/12/27 11:16:17;;;;;;;0.60;0.50;;;4.00;99.90;;;;;;5007864;28;20090;-77
2020/12/27 11:18:43;;;;;;;1.42;0.77;;;4.10;99.90;;;;;;4985450;28;20034;-79
2020/12/27 11:21:09;;;;;;;2.03;0.95;;;4.00;99.90;;;;;;5001003;28;20045;-80
2020/12/27 11:23:34;;;;;;;2.03;0.63;;;4.10;99.90;;;;;;4990054;28;20033;-84
2020/12/27 11:26:00;;;;;;;0.88;0.63;;;4.10;99.90;;;;;;4990932;28;20458;-79
2020/12/27 11:28:26;;;;;;;2.00;0.68;;;4.10;99.90;;;;;;4989754;28;20098;-81
2020/12/27 11:30:51;;;;;;;1.30;0.73;;;4.10;99.90;;;;;;4990368;28;20095;-81
2020/12/27 11:33:20;;;;;;;0.98;0.60;;;4.10;99.90;;;;;;4990185;28;20027;-78
2020/12/27 11:35:48;;;;;;;2.28;0.68;;;4.00;99.90;;;;;;4990372;28;20105;-81
2020/12/27 11:38:14;;;;;;;9.90;0.70;;;4.00;99.90;;;;;;4989943;28;20026;-79
2020/12/27 11:40:40;;;;;;;1.90;0.45;;;4.00;99.90;;;;;;4988992;28;20042;-82
2020/12/27 11:43:05;;;;;;;0.63;0.45;;;4.00;99.90;;;;;;4986394;28;20058;-80
2020/12/27 11:45:31;;;;;;;3.20;0.82;;;3.90;99.90;;;;;;4988803;28;20033;-79
2020/12/27 11:47:56;;;;;;;1.25;0.70;;;3.90;99.90;;;;;;4989837;28;20152;-79
2020/12/27 11:50:22;;;;;;;0.98;0.50;;;3.90;99.90;;;;;;4989378;28;20026;-79
2020/12/27 11:52:48;;;;;;;0.80;0.57;;;3.90;99.90;;;;;;5007232;28;20031;-83
2020/12/27 11:55:13;;;;;;;4.35;1.70;;;3.80;99.90;;;;;;4989308;28;20027;-81
2020/12/27 11:57:39;;;;;;;1.27;1.17;;;3.80;99.90;;;;;;4989398;28;20040;-83
2020/12/27 12:00:05;;;;;;;1.52;0.63;;;3.80;99.90;;;;;;4988616;28;20126;-79
2020/12/27 12:02:31;;;;;;;0.98;0.77;;;3.80;99.90;;;;;;5007113;28;20133;-80
2020/12/27 12:04:56;;;;;;;1.13;0.60;;;3.70;99.90;;;;;;4990032;28;20026;-78
2020/12/27 12:07:22;;;;;;;2.88;1.38;;;3.70;99.90;;;;;;4988683;28;20026;-82
2020/12/27 12:09:48;;;;;;;1.58;1.00;;;3.60;99.90;;;;;;4989118;28;20508;-81
2020/12/27 12:12:14;;;;;;;1.88;1.02;;;3.60;99.90;;;;;;5007418;28;20031;-78
2020/12/27 12:14:40;;;;;;;3.63;1.40;;;3.60;99.90;;;;;;4988576;28;20030;-79
2020/12/27 12:17:06;;;;;;;1.83;1.10;;;3.60;99.90;;;;;;4997777;28;20032;-80
2020/12/27 12:19:32;;;;;;;1.23;0.68;;;3.60;99.90;;;;;;4997303;28;20125;-77
2020/12/27 12:21:57;;;;;;;1.52;0.90;;;3.60;99.90;;;;;;4986938;28;20104;-78
2020/12/27 12:24:23;;;;;;;0.95;0.60;;;3.60;99.90;;;;;;4998546;28;20435;-81
2020/12/27 12:26:49;;;;;;;2.85;1.85;;;3.60;99.90;;;;;;5011814;28;20058;-80
2020/12/27 12:29:14;;;;;;;1.00;0.75;;;3.60;99.90;;;;;;5026679;28;20026;-76
2020/12/27 12:31:40;;;;;;;2.80;1.55;;;3.60;99.90;;;;;;5019591;28;20069;-80
2020/12/27 12:34:06;;;;;;;3.67;1.27;;;3.50;99.90;;;;;;4996914;28;20030;-81
2020/12/27 12:39:32;;;;;;;1.42;0.85;;;3.50;99.90;;;;;;4724798;26;20173;-86
2020/12/27 12:42:04;;;;;;;5.18;1.10;;;3.50;99.90;;;;;;5011136;28;20080;-83
2020/12/27 12:44:30;;;;;;;0.65;0.57;;;3.50;99.90;;;;;;5027768;28;20025;-82
2020/12/27 12:46:58;;;;;;;3.58;1.25;;;3.50;99.90;;;;;;5006756;28;20061;-81
2020/12/27 12:49:23;;;;;;;1.45;0.68;;;3.40;99.90;;;;;;5007582;28;20457;-81
2020/12/27 12:51:49;;;;;;;2.92;1.38;;;3.40;99.90;;;;;;5025733;28;20026;-78
2020/12/27 12:54:15;;;;;;;1.95;1.25;;;3.40;99.90;;;;;;5007211;28;20038;-78
2020/12/27 12:56:40;;;;;;;1.60;1.08;;;3.50;99.90;;;;;;5025011;28;20129;-81
2020/12/27 12:59:06;;;;;;;3.83;0.82;;;3.40;99.90;;;;;;5007397;28;20084;-79
2020/12/27 13:01:32;;;;;;;4.45;1.42;;;3.40;99.90;;;;;;5025053;28;20453;-77
2020/12/27 13:03:57;;;;;;;2.47;0.77;;;3.40;99.90;;;;;;5007405;28;20026;-80
2020/12/27 13:06:24;;;;;;;1.67;0.80;;;3.40;99.90;;;;;;5007682;28;20065;-81